sensor_id;sensor_type;location;lat;lon;timestamp;temperature;humidity
20833;DHT22;56075;51.264;7.150;2022-11-15T00:01:54;10.90;99.90
20833;DHT22;56075;51.264;7.150;2022-11-15T00:04:44;13.10;99.90
20833;DHT22;56075;51.264;7.150;2022-11-15T00:07:33;11.00;99.90
20833;DHT22;56075;51.264;7.150;2022-11-15T00:10:23;11.10;99.90
20833;DHT22;56075;51.264;7.150;2022-11-15T00:13:13;11.00;99.90
20833;DHT22;56075;51.264;7.150;2022-11-15T00:16:03;11.10;99.90
20833;DHT22;56075;51.264;7.150;2022-11-15T00:18:53;11.20;99.90
20833;DHT22;56075;51.264;7.150;2022-11-15T00:21:43;11.30;99.90
20833;DHT22;56075;51.264;7.150;2022-11-15T00:24:32;11.30;99.90
20833;DHT22;56075;51.264;7.150;2022-11-15T00:27:21;11.50;99.90
20833;DHT22;56075;51.264;7.150;2022-11-15T00:30:11;11.30;99.90
20833;DHT22;56075;51.264;7.150;2022-11-15T00:33:05;11.60;99.90
20833;DHT22;56075;51.264;7.150;2022-11-15T00:36:06;11.60;99.90
20833;DHT22;56075;51.264;7.150;2022-11-15T00:38:56;11.50;99.90
20833;DHT22;56075;51.264;7.150;2022-11-15T00:41:46;13.10;99.90
20833;DHT22;56075;51.264;7.150;2022-11-15T00:44:35;11.80;99.90
20833;DHT22;56075;51.264;7.150;2022-11-15T00:47:25;12.00;99.90
20833;DHT22;56075;51.264;7.150;2022-11-15T00:50:15;11.70;99.90
20833;DHT22;56075;51.264;7.150;2022-11-15T00:53:05;11.70;99.90
20833;DHT22;56075;51.264;7.150;2022-11-15T00:55:54;11.80;99.90
20833;DHT22;56075;51.264;7.150;2022-11-15T00:58:44;11.80;99.90
20833;DHT22;56075;51.264;7.150;2022-11-15T01:01:33;11.80;99.90
20833;DHT22;56075;51.264;7.150;2022-11-15T01:04:22;11.90;99.90
20833;DHT22;56075;51.264;7.150;2022-11-15T01:07:12;11.90;99.90
20833;DHT22;56075;51.264;7.150;2022-11-15T01:10:03;11.80;99.90
20833;DHT22;56075;51.264;7.150;2022-11-15T01:12:53;11.90;99.90
20833;DHT22;56075;51.264;7.150;2022-11-15T01:15:42;11.90;99.90
20833;DHT22;56075;51.264;7.150;2022-11-15T01:18:32;11.90;99.90
20833;DHT22;56075;51.264;7.150;2022-11-15T01:21:21;12.20;99.90
20833;DHT22;56075;51.264;7.150;2022-11-15T01:24:12;12.00;99.90
20833;DHT22;56075;51.264;7.150;2022-11-15T01:27:02;11.90;99.90
20833;DHT22;56075;51.264;7.150;2022-11-15T01:29:52;12.00;99.90
20833;DHT22;56075;51.264;7.150;2022-11-15T01:32:41;11.80;99.90
20833;DHT22;56075;51.264;7.150;2022-11-15T01:35:31;12.00;99.90
20833;DHT22;56075;51.264;7.150;2022-11-15T01:38:21;12.20;99.90
20833;DHT22;56075;51.264;7.150;2022-11-15T01:41:20;12.70;99.90
20833;DHT22;56075;51.264;7.150;2022-11-15T01:50:13;12.20;99.90
20833;DHT22;56075;51.264;7.150;2022-11-15T01:53:03;12.10;99.90
20833;DHT22;56075;51.264;7.150;2022-11-15T01:55:53;12.20;99.90
20833;DHT22;56075;51.264;7.150;2022-11-15T01:58:44;12.20;99.90
20833;DHT22;56075;51.264;7.150;2022-11-15T02:01:34;12.20;99.90
20833;DHT22;56075;51.264;7.150;2022-11-15T02:04:26;12.30;99.90
20833;DHT22;56075;51.264;7.150;2022-11-15T02:07:18;12.40;99.90
20833;DHT22;56075;51.264;7.150;2022-11-15T02:10:28;12.10;99.90
20833;DHT22;56075;51.264;7.150;2022-11-15T02:13:18;12.30;99.90
20833;DHT22;56075;51.264;7.150;2022-11-15T02:31:53;12.40;99.90
20833;DHT22;56075;51.264;7.150;2022-11-15T02:34:54;12.20;99.90
20833;DHT22;56075;51.264;7.150;2022-11-15T02:40:50;12.10;99.90
20833;DHT22;56075;51.264;7.150;2022-11-15T02:46:57;12.20;99.90
20833;DHT22;56075;51.264;7.150;2022-11-15T02:50:08;12.00;99.90
20833;DHT22;56075;51.264;7.150;2022-11-15T02:52:58;12.30;99.90
20833;DHT22;56075;51.264;7.150;2022-11-15T02:55:50;12.10;99.90
20833;DHT22;56075;51.264;7.150;2022-11-15T02:59:10;14.20;99.90
20833;DHT22;56075;51.264;7.150;2022-11-15T03:08:31;12.20;99.90
20833;DHT22;56075;51.264;7.150;2022-11-15T03:11:22;12.40;99.90
20833;DHT22;56075;51.264;7.150;2022-11-15T03:14:20;12.30;99.90
20833;DHT22;56075;51.264;7.150;2022-11-15T03:17:30;11.40;99.90
20833;DHT22;56075;51.264;7.150;2022-11-15T03:20:23;12.30;99.90
20833;DHT22;56075;51.264;7.150;2022-11-15T03:23:14;12.20;99.90
20833;DHT22;56075;51.264;7.150;2022-11-15T03:26:07;12.20;99.90
20833;DHT22;56075;51.264;7.150;2022-11-15T03:29:15;12.50;99.90
20833;DHT22;56075;51.264;7.150;2022-11-15T03:32:12;12.20;99.90
20833;DHT22;56075;51.264;7.150;2022-11-15T03:35:08;12.30;99.90
20833;DHT22;56075;51.264;7.150;2022-11-15T03:41:01;12.50;99.90
20833;DHT22;56075;51.264;7.150;2022-11-15T03:44:02;12.10;99.90
20833;DHT22;56075;51.264;7.150;2022-11-15T03:47:08;12.30;99.90
20833;DHT22;56075;51.264;7.150;2022-11-15T03:50:02;12.50;99.90
20833;DHT22;56075;51.264;7.150;2022-11-15T03:52:54;14.10;99.90
20833;DHT22;56075;51.264;7.150;2022-11-15T03:55:44;12.30;99.90
20833;DHT22;56075;51.264;7.150;2022-11-15T03:58:34;12.40;99.90
20833;DHT22;56075;51.264;7.150;2022-11-15T04:01:23;12.40;99.90
20833;DHT22;56075;51.264;7.150;2022-11-15T04:04:13;12.50;99.90
20833;DHT22;56075;51.264;7.150;2022-11-15T04:07:02;12.20;99.90
20833;DHT22;56075;51.264;7.150;2022-11-15T04:09:52;12.30;99.90
20833;DHT22;56075;51.264;7.150;2022-11-15T04:12:54;12.30;99.90
20833;DHT22;56075;51.264;7.150;2022-11-15T04:15:44;12.30;99.90
20833;DHT22;56075;51.264;7.150;2022-11-15T04:18:33;12.10;99.90
20833;DHT22;56075;51.264;7.150;2022-11-15T04:21:23;12.50;99.90
20833;DHT22;56075;51.264;7.150;2022-11-15T04:24:31;14.00;99.90
20833;DHT22;56075;51.264;7.150;2022-11-15T04:27:21;13.90;99.90
20833;DHT22;56075;51.264;7.150;2022-11-15T04:30:10;12.20;99.90
20833;DHT22;56075;51.264;7.150;2022-11-15T04:32:59;12.40;99.90
20833;DHT22;56075;51.264;7.150;2022-11-15T04:35:49;13.50;99.90
20833;DHT22;56075;51.264;7.150;2022-11-15T04:38:58;12.30;99.90
20833;DHT22;56075;51.264;7.150;2022-11-15T04:41:47;14.00;99.90
20833;DHT22;56075;51.264;7.150;2022-11-15T04:44:37;12.20;99.90
20833;DHT22;56075;51.264;7.150;2022-11-15T04:47:27;12.30;99.90
20833;DHT22;56075;51.264;7.150;2022-11-15T04:50:19;12.30;99.90
20833;DHT22;56075;51.264;7.150;2022-11-15T04:53:08;12.40;99.90
20833;DHT22;56075;51.264;7.150;2022-11-15T04:55:58;12.20;99.90
20833;DHT22;56075;51.264;7.150;2022-11-15T04:58:50;12.20;99.90
20833;DHT22;56075;51.264;7.150;2022-11-15T05:01:40;14.10;99.90
20833;DHT22;56075;51.264;7.150;2022-11-15T05:04:29;12.40;99.90
20833;DHT22;56075;51.264;7.150;2022-11-15T05:07:18;12.50;99.90
20833;DHT22;56075;51.264;7.150;2022-11-15T05:10:09;12.50;99.90
20833;DHT22;56075;51.264;7.150;2022-11-15T05:12:59;12.30;99.90
20833;DHT22;56075;51.264;7.150;2022-11-15T05:15:48;12.20;99.90
20833;DHT22;56075;51.264;7.150;2022-11-15T05:18:38;12.40;99.90
20833;DHT22;56075;51.264;7.150;2022-11-15T05:21:29;12.30;99.90
20833;DHT22;56075;51.264;7.150;2022-11-15T05:24:19;12.20;99.90
20833;DHT22;56075;51.264;7.150;2022-11-15T05:27:09;12.60;99.90
20833;DHT22;56075;51.264;7.150;2022-11-15T05:29:58;13.60;99.90
20833;DHT22;56075;51.264;7.150;2022-11-15T05:32:48;12.50;99.90
20833;DHT22;56075;51.264;7.150;2022-11-15T05:35:42;12.40;99.90
20833;DHT22;56075;51.264;7.150;2022-11-15T05:38:34;12.60;99.90
20833;DHT22;56075;51.264;7.150;2022-11-15T05:41:33;12.60;99.90
20833;DHT22;56075;51.264;7.150;2022-11-15T05:44:23;12.50;99.90
20833;DHT22;56075;51.264;7.150;2022-11-15T05:47:24;12.50;99.90
20833;DHT22;56075;51.264;7.150;2022-11-15T05:50:16;12.70;99.90
20833;DHT22;56075;51.264;7.150;2022-11-15T05:53:07;12.60;99.90
20833;DHT22;56075;51.264;7.150;2022-11-15T05:55:57;12.60;99.90
20833;DHT22;56075;51.264;7.150;2022-11-15T05:58:47;13.60;99.90
20833;DHT22;56075;51.264;7.150;2022-11-15T06:01:38;12.40;99.90
20833;DHT22;56075;51.264;7.150;2022-11-15T06:04:28;12.60;99.90
20833;DHT22;56075;51.264;7.150;2022-11-15T06:07:17;14.30;99.90
20833;DHT22;56075;51.264;7.150;2022-11-15T06:10:07;12.60;99.90
20833;DHT22;56075;51.264;7.150;2022-11-15T06:13:01;12.60;99.90
20833;DHT22;56075;51.264;7.150;2022-11-15T06:15:52;13.50;99.90
20833;DHT22;56075;51.264;7.150;2022-11-15T06:18:44;13.90;99.90
20833;DHT22;56075;51.264;7.150;2022-11-15T06:21:33;12.60;99.90
20833;DHT22;56075;51.264;7.150;2022-11-15T06:24:23;13.90;99.90
20833;DHT22;56075;51.264;7.150;2022-11-15T06:27:12;12.80;99.90
20833;DHT22;56075;51.264;7.150;2022-11-15T06:30:02;11.40;99.90
20833;DHT22;56075;51.264;7.150;2022-11-15T06:32:58;12.60;99.90
20833;DHT22;56075;51.264;7.150;2022-11-15T06:35:49;12.60;99.90
20833;DHT22;56075;51.264;7.150;2022-11-15T06:38:39;12.70;99.90
20833;DHT22;56075;51.264;7.150;2022-11-15T06:41:28;12.70;99.90
20833;DHT22;56075;51.264;7.150;2022-11-15T06:44:18;12.60;99.90
20833;DHT22;56075;51.264;7.150;2022-11-15T06:47:07;13.80;99.90
20833;DHT22;56075;51.264;7.150;2022-11-15T06:49:57;12.70;99.90
20833;DHT22;56075;51.264;7.150;2022-11-15T06:52:46;12.50;99.90
20833;DHT22;56075;51.264;7.150;2022-11-15T06:55:36;12.60;99.90
20833;DHT22;56075;51.264;7.150;2022-11-15T06:58:26;13.90;99.90
20833;DHT22;56075;51.264;7.150;2022-11-15T07:01:15;12.60;99.90
20833;DHT22;56075;51.264;7.150;2022-11-15T07:04:05;14.70;99.90
20833;DHT22;56075;51.264;7.150;2022-11-15T07:06:54;12.40;99.90
20833;DHT22;56075;51.264;7.150;2022-11-15T07:09:44;12.40;99.90
20833;DHT22;56075;51.264;7.150;2022-11-15T07:12:34;12.30;99.90
20833;DHT22;56075;51.264;7.150;2022-11-15T07:15:25;12.30;99.90
20833;DHT22;56075;51.264;7.150;2022-11-15T07:18:14;12.20;99.90
20833;DHT22;56075;51.264;7.150;2022-11-15T07:21:06;12.10;99.90
20833;DHT22;56075;51.264;7.150;2022-11-15T07:23:56;12.20;99.90
20833;DHT22;56075;51.264;7.150;2022-11-15T07:26:45;13.80;99.90
20833;DHT22;56075;51.264;7.150;2022-11-15T07:29:34;12.20;99.90
20833;DHT22;56075;51.264;7.150;2022-11-15T07:32:24;12.00;99.90
20833;DHT22;56075;51.264;7.150;2022-11-15T07:35:13;13.70;99.90
20833;DHT22;56075;51.264;7.150;2022-11-15T07:38:03;12.20;99.90
20833;DHT22;56075;51.264;7.150;2022-11-15T07:41:01;12.60;99.90
20833;DHT22;56075;51.264;7.150;2022-11-15T07:43:51;12.00;99.90
20833;DHT22;56075;51.264;7.150;2022-11-15T07:46:41;12.00;99.90
20833;DHT22;56075;51.264;7.150;2022-11-15T07:49:31;12.10;99.90
20833;DHT22;56075;51.264;7.150;2022-11-15T07:52:21;12.20;99.90
20833;DHT22;56075;51.264;7.150;2022-11-15T07:55:10;12.00;99.90
20833;DHT22;56075;51.264;7.150;2022-11-15T07:58:02;12.10;99.90
20833;DHT22;56075;51.264;7.150;2022-11-15T08:00:52;12.00;99.90
20833;DHT22;56075;51.264;7.150;2022-11-15T08:03:42;12.10;99.90
20833;DHT22;56075;51.264;7.150;2022-11-15T08:06:31;11.80;99.90
20833;DHT22;56075;51.264;7.150;2022-11-15T08:09:21;13.50;99.90
20833;DHT22;56075;51.264;7.150;2022-11-15T08:12:10;12.00;99.90
20833;DHT22;56075;51.264;7.150;2022-11-15T08:15:00;12.00;99.90
20833;DHT22;56075;51.264;7.150;2022-11-15T08:17:54;12.10;99.90
20833;DHT22;56075;51.264;7.150;2022-11-15T08:20:44;12.00;99.90
20833;DHT22;56075;51.264;7.150;2022-11-15T08:23:34;12.20;99.90
20833;DHT22;56075;51.264;7.150;2022-11-15T08:26:24;11.90;99.90
20833;DHT22;56075;51.264;7.150;2022-11-15T08:29:18;12.10;99.90
20833;DHT22;56075;51.264;7.150;2022-11-15T08:32:08;12.40;99.90
20833;DHT22;56075;51.264;7.150;2022-11-15T08:34:58;12.20;99.90
20833;DHT22;56075;51.264;7.150;2022-11-15T08:37:48;12.10;99.90
20833;DHT22;56075;51.264;7.150;2022-11-15T08:40:37;12.30;99.90
20833;DHT22;56075;51.264;7.150;2022-11-15T08:43:27;12.40;99.90
20833;DHT22;56075;51.264;7.150;2022-11-15T08:46:17;12.50;99.90
20833;DHT22;56075;51.264;7.150;2022-11-15T08:49:07;12.40;99.90
20833;DHT22;56075;51.264;7.150;2022-11-15T08:51:57;12.60;99.90
20833;DHT22;56075;51.264;7.150;2022-11-15T08:54:47;12.30;99.90
20833;DHT22;56075;51.264;7.150;2022-11-15T08:57:37;12.60;99.90
20833;DHT22;56075;51.264;7.150;2022-11-15T09:00:26;12.30;99.90
20833;DHT22;56075;51.264;7.150;2022-11-15T09:03:16;12.30;99.90
20833;DHT22;56075;51.264;7.150;2022-11-15T09:06:05;12.20;99.90
20833;DHT22;56075;51.264;7.150;2022-11-15T09:08:55;12.60;99.90
20833;DHT22;56075;51.264;7.150;2022-11-15T09:11:45;12.70;99.90
20833;DHT22;56075;51.264;7.150;2022-11-15T09:14:35;12.30;99.90
20833;DHT22;56075;51.264;7.150;2022-11-15T09:17:24;12.20;99.90
20833;DHT22;56075;51.264;7.150;2022-11-15T09:20:14;12.30;99.90
20833;DHT22;56075;51.264;7.150;2022-11-15T09:23:05;12.60;99.90
20833;DHT22;56075;51.264;7.150;2022-11-15T09:26:02;11.90;99.90
20833;DHT22;56075;51.264;7.150;2022-11-15T09:28:52;12.60;99.90
20833;DHT22;56075;51.264;7.150;2022-11-15T09:31:42;12.40;99.90
20833;DHT22;56075;51.264;7.150;2022-11-15T09:34:33;12.50;99.90
20833;DHT22;56075;51.264;7.150;2022-11-15T09:37:22;12.40;99.90
20833;DHT22;56075;51.264;7.150;2022-11-15T09:40:13;12.40;99.90
20833;DHT22;56075;51.264;7.150;2022-11-15T09:49:19;12.60;99.90
20833;DHT22;56075;51.264;7.150;2022-11-15T09:52:10;12.60;99.90
20833;DHT22;56075;51.264;7.150;2022-11-15T09:54:48;12.30;99.90
20833;DHT22;56075;51.264;7.150;2022-11-15T10:03:02;12.60;99.90
20833;DHT22;56075;51.264;7.150;2022-11-15T10:05:42;12.60;99.90
20833;DHT22;56075;51.264;7.150;2022-11-15T10:08:25;12.80;99.90
20833;DHT22;56075;51.264;7.150;2022-11-15T10:11:14;12.60;99.90
20833;DHT22;56075;51.264;7.150;2022-11-15T10:13:47;12.70;99.90
20833;DHT22;56075;51.264;7.150;2022-11-15T10:20:16;12.70;99.90
20833;DHT22;56075;51.264;7.150;2022-11-15T10:22:51;12.70;99.90
20833;DHT22;56075;51.264;7.150;2022-11-15T10:25:28;12.70;99.90
20833;DHT22;56075;51.264;7.150;2022-11-15T10:30:49;12.80;99.90
20833;DHT22;56075;51.264;7.150;2022-11-15T10:38:51;13.70;99.90
20833;DHT22;56075;51.264;7.150;2022-11-15T10:46:41;13.10;99.90
20833;DHT22;56075;51.264;7.150;2022-11-15T10:51:50;13.00;99.90
20833;DHT22;56075;51.264;7.150;2022-11-15T10:54:30;13.10;99.90
20833;DHT22;56075;51.264;7.150;2022-11-15T10:57:22;13.00;99.90
20833;DHT22;56075;51.264;7.150;2022-11-15T11:02:39;13.20;99.90
20833;DHT22;56075;51.264;7.150;2022-11-15T11:08:01;13.50;99.90
20833;DHT22;56075;51.264;7.150;2022-11-15T11:10:33;13.20;99.90
20833;DHT22;56075;51.264;7.150;2022-11-15T11:19:08;13.40;99.90
20833;DHT22;56075;51.264;7.150;2022-11-15T11:22:05;13.40;99.90
20833;DHT22;56075;51.264;7.150;2022-11-15T11:24:53;13.30;99.90
20833;DHT22;56075;51.264;7.150;2022-11-15T11:27:53;13.30;99.90
20833;DHT22;56075;51.264;7.150;2022-11-15T11:33:50;13.70;99.90
20833;DHT22;56075;51.264;7.150;2022-11-15T11:39:40;13.70;99.90
20833;DHT22;56075;51.264;7.150;2022-11-15T11:45:12;13.90;99.90
20833;DHT22;56075;51.264;7.150;2022-11-15T11:48:12;14.00;99.90
20833;DHT22;56075;51.264;7.150;2022-11-15T11:53:35;14.00;99.90
20833;DHT22;56075;51.264;7.150;2022-11-15T11:56:31;14.20;99.90
20833;DHT22;56075;51.264;7.150;2022-11-15T12:01:44;14.20;99.90
20833;DHT22;56075;51.264;7.150;2022-11-15T12:07:27;14.30;99.90
20833;DHT22;56075;51.264;7.150;2022-11-15T12:10:23;14.30;99.90
20833;DHT22;56075;51.264;7.150;2022-11-15T12:13:25;14.40;99.90
20833;DHT22;56075;51.264;7.150;2022-11-15T12:16:04;14.40;99.90
20833;DHT22;56075;51.264;7.150;2022-11-15T12:18:37;14.40;99.90
20833;DHT22;56075;51.264;7.150;2022-11-15T12:24:19;14.50;99.90
20833;DHT22;56075;51.264;7.150;2022-11-15T12:26:57;14.40;99.90
20833;DHT22;56075;51.264;7.150;2022-11-15T12:29:40;14.30;99.90
20833;DHT22;56075;51.264;7.150;2022-11-15T12:32:27;14.30;99.90
20833;DHT22;56075;51.264;7.150;2022-11-15T12:35:01;16.40;99.90
20833;DHT22;56075;51.264;7.150;2022-11-15T12:40:17;15.60;99.90
20833;DHT22;56075;51.264;7.150;2022-11-15T12:45:45;14.40;99.90
20833;DHT22;56075;51.264;7.150;2022-11-15T12:59:38;14.40;99.90
20833;DHT22;56075;51.264;7.150;2022-11-15T13:08:09;14.30;99.90
20833;DHT22;56075;51.264;7.150;2022-11-15T13:17:30;14.80;99.90
20833;DHT22;56075;51.264;7.150;2022-11-15T13:20:25;14.80;99.90
20833;DHT22;56075;51.264;7.150;2022-11-15T13:28:41;14.80;99.90
20833;DHT22;56075;51.264;7.150;2022-11-15T13:34:00;14.70;99.90
20833;DHT22;56075;51.264;7.150;2022-11-15T13:36:36;14.80;99.90
20833;DHT22;56075;51.264;7.150;2022-11-15T13:39:34;14.70;99.90
20833;DHT22;56075;51.264;7.150;2022-11-15T13:42:20;14.60;99.90
20833;DHT22;56075;51.264;7.150;2022-11-15T13:45:14;14.60;99.90
20833;DHT22;56075;51.264;7.150;2022-11-15T13:47:59;14.60;99.90
20833;DHT22;56075;51.264;7.150;2022-11-15T13:51:04;14.30;99.90
20833;DHT22;56075;51.264;7.150;2022-11-15T13:53:39;14.50;99.90
20833;DHT22;56075;51.264;7.150;2022-11-15T13:56:12;14.60;99.90
20833;DHT22;56075;51.264;7.150;2022-11-15T13:58:45;14.70;99.90
20833;DHT22;56075;51.264;7.150;2022-11-15T14:01:21;14.60;99.90
20833;DHT22;56075;51.264;7.150;2022-11-15T14:03:57;14.60;99.90
20833;DHT22;56075;51.264;7.150;2022-11-15T14:06:29;14.70;99.90
20833;DHT22;56075;51.264;7.150;2022-11-15T14:11:53;14.70;99.90
20833;DHT22;56075;51.264;7.150;2022-11-15T14:14:35;14.80;99.90
20833;DHT22;56075;51.264;7.150;2022-11-15T14:20:01;14.70;99.90
20833;DHT22;56075;51.264;7.150;2022-11-15T14:22:36;14.40;99.90
20833;DHT22;56075;51.264;7.150;2022-11-15T14:25:24;14.50;99.90
20833;DHT22;56075;51.264;7.150;2022-11-15T14:31:06;14.60;99.90
20833;DHT22;56075;51.264;7.150;2022-11-15T14:33:40;14.50;99.90
20833;DHT22;56075;51.264;7.150;2022-11-15T14:36:34;14.40;99.90
20833;DHT22;56075;51.264;7.150;2022-11-15T14:39:13;14.40;99.90
20833;DHT22;56075;51.264;7.150;2022-11-15T14:41:53;14.40;99.90
20833;DHT22;56075;51.264;7.150;2022-11-15T14:44:27;14.40;99.90
20833;DHT22;56075;51.264;7.150;2022-11-15T14:47:02;14.40;99.90
20833;DHT22;56075;51.264;7.150;2022-11-15T14:49:36;14.60;99.90
20833;DHT22;56075;51.264;7.150;2022-11-15T14:52:28;15.30;99.90
20833;DHT22;56075;51.264;7.150;2022-11-15T14:55:01;14.30;99.90
20833;DHT22;56075;51.264;7.150;2022-11-15T14:57:42;12.90;99.90
20833;DHT22;56075;51.264;7.150;2022-11-15T15:00:19;14.20;99.90
20833;DHT22;56075;51.264;7.150;2022-11-15T15:03:38;13.00;99.90
20833;DHT22;56075;51.264;7.150;2022-11-15T15:05:51;14.90;99.90
20833;DHT22;56075;51.264;7.150;2022-11-15T15:08:24;14.10;99.90
20833;DHT22;56075;51.264;7.150;2022-11-15T15:11:28;14.10;99.90
20833;DHT22;56075;51.264;7.150;2022-11-15T15:14:00;14.50;99.90
20833;DHT22;56075;51.264;7.150;2022-11-15T15:16:32;14.00;99.90
20833;DHT22;56075;51.264;7.150;2022-11-15T15:19:26;15.00;99.90
20833;DHT22;56075;51.264;7.150;2022-11-15T15:22:15;13.80;99.90
20833;DHT22;56075;51.264;7.150;2022-11-15T15:24:52;13.90;99.90
20833;DHT22;56075;51.264;7.150;2022-11-15T15:27:29;13.90;99.90
20833;DHT22;56075;51.264;7.150;2022-11-15T15:30:01;14.00;99.90
20833;DHT22;56075;51.264;7.150;2022-11-15T15:32:32;13.80;99.90
20833;DHT22;56075;51.264;7.150;2022-11-15T15:35:04;14.00;99.90
20833;DHT22;56075;51.264;7.150;2022-11-15T15:37:43;13.80;99.90
20833;DHT22;56075;51.264;7.150;2022-11-15T15:40:17;13.70;99.90
20833;DHT22;56075;51.264;7.150;2022-11-15T15:42:50;13.80;99.90
20833;DHT22;56075;51.264;7.150;2022-11-15T15:45:21;13.80;99.90
20833;DHT22;56075;51.264;7.150;2022-11-15T15:47:53;13.70;99.90
20833;DHT22;56075;51.264;7.150;2022-11-15T15:50:33;13.70;99.90
20833;DHT22;56075;51.264;7.150;2022-11-15T15:53:04;13.60;99.90
20833;DHT22;56075;51.264;7.150;2022-11-15T15:55:36;13.60;99.90
20833;DHT22;56075;51.264;7.150;2022-11-15T15:58:08;13.60;99.90
20833;DHT22;56075;51.264;7.150;2022-11-15T16:00:42;13.70;99.90
20833;DHT22;56075;51.264;7.150;2022-11-15T16:03:16;13.80;99.90
20833;DHT22;56075;51.264;7.150;2022-11-15T16:05:50;15.70;99.90
20833;DHT22;56075;51.264;7.150;2022-11-15T16:08:44;13.60;99.90
20833;DHT22;56075;51.264;7.150;2022-11-15T16:11:16;13.10;99.90
20833;DHT22;56075;51.264;7.150;2022-11-15T16:13:47;13.50;99.90
20833;DHT22;56075;51.264;7.150;2022-11-15T16:16:20;13.70;99.90
20833;DHT22;56075;51.264;7.150;2022-11-15T16:18:52;13.70;99.90
20833;DHT22;56075;51.264;7.150;2022-11-15T16:21:24;13.60;99.90
20833;DHT22;56075;51.264;7.150;2022-11-15T16:23:56;13.50;99.90
20833;DHT22;56075;51.264;7.150;2022-11-15T16:26:28;13.50;99.90
20833;DHT22;56075;51.264;7.150;2022-11-15T16:29:00;13.50;99.90
20833;DHT22;56075;51.264;7.150;2022-11-15T16:31:32;13.70;99.90
20833;DHT22;56075;51.264;7.150;2022-11-15T16:34:03;13.40;99.90
20833;DHT22;56075;51.264;7.150;2022-11-15T16:36:34;13.50;99.90
20833;DHT22;56075;51.264;7.150;2022-11-15T16:39:18;13.40;99.90
20833;DHT22;56075;51.264;7.150;2022-11-15T16:42:01;13.40;99.90
20833;DHT22;56075;51.264;7.150;2022-11-15T16:44:41;13.50;99.90
20833;DHT22;56075;51.264;7.150;2022-11-15T16:47:26;16.30;99.90
20833;DHT22;56075;51.264;7.150;2022-11-15T16:50:02;13.50;99.90
20833;DHT22;56075;51.264;7.150;2022-11-15T16:52:40;14.70;99.90
20833;DHT22;56075;51.264;7.150;2022-11-15T16:55:18;13.50;99.90
20833;DHT22;56075;51.264;7.150;2022-11-15T16:57:59;13.50;99.90
20833;DHT22;56075;51.264;7.150;2022-11-15T17:00:42;13.40;99.90
20833;DHT22;56075;51.264;7.150;2022-11-15T17:03:16;13.60;99.90
20833;DHT22;56075;51.264;7.150;2022-11-15T17:05:49;13.50;99.90
20833;DHT22;56075;51.264;7.150;2022-11-15T17:08:29;13.50;99.90
20833;DHT22;56075;51.264;7.150;2022-11-15T17:11:05;13.60;99.90
20833;DHT22;56075;51.264;7.150;2022-11-15T17:13:36;13.60;99.90
20833;DHT22;56075;51.264;7.150;2022-11-15T17:16:10;15.40;99.90
20833;DHT22;56075;51.264;7.150;2022-11-15T17:18:50;13.50;99.90
20833;DHT22;56075;51.264;7.150;2022-11-15T17:21:24;13.50;99.90
20833;DHT22;56075;51.264;7.150;2022-11-15T17:24:02;13.40;99.90
20833;DHT22;56075;51.264;7.150;2022-11-15T17:26:33;13.60;99.90
20833;DHT22;56075;51.264;7.150;2022-11-15T17:29:05;13.50;99.90
20833;DHT22;56075;51.264;7.150;2022-11-15T17:31:39;13.70;99.90
20833;DHT22;56075;51.264;7.150;2022-11-15T17:34:10;13.50;99.90
20833;DHT22;56075;51.264;7.150;2022-11-15T17:36:42;13.50;99.90
20833;DHT22;56075;51.264;7.150;2022-11-15T17:39:13;13.60;99.90
20833;DHT22;56075;51.264;7.150;2022-11-15T17:41:45;13.60;99.90
20833;DHT22;56075;51.264;7.150;2022-11-15T17:44:17;13.50;99.90
20833;DHT22;56075;51.264;7.150;2022-11-15T17:46:48;15.50;99.90
20833;DHT22;56075;51.264;7.150;2022-11-15T17:49:26;13.50;99.90
20833;DHT22;56075;51.264;7.150;2022-11-15T17:52:08;13.60;99.90
20833;DHT22;56075;51.264;7.150;2022-11-15T17:54:40;13.60;99.90
20833;DHT22;56075;51.264;7.150;2022-11-15T17:57:12;13.50;99.90
20833;DHT22;56075;51.264;7.150;2022-11-15T17:59:43;13.40;99.90
20833;DHT22;56075;51.264;7.150;2022-11-15T18:02:15;13.70;99.90
20833;DHT22;56075;51.264;7.150;2022-11-15T18:04:46;12.00;99.90
20833;DHT22;56075;51.264;7.150;2022-11-15T18:07:20;13.50;99.90
20833;DHT22;56075;51.264;7.150;2022-11-15T18:09:58;13.50;99.90
20833;DHT22;56075;51.264;7.150;2022-11-15T18:12:38;13.50;99.90
20833;DHT22;56075;51.264;7.150;2022-11-15T18:15:10;14.00;99.90
20833;DHT22;56075;51.264;7.150;2022-11-15T18:17:55;13.70;99.90
20833;DHT22;56075;51.264;7.150;2022-11-15T18:20:32;13.60;99.90
20833;DHT22;56075;51.264;7.150;2022-11-15T18:23:07;13.30;99.90
20833;DHT22;56075;51.264;7.150;2022-11-15T18:25:43;13.70;99.90
20833;DHT22;56075;51.264;7.150;2022-11-15T18:28:33;13.40;99.90
20833;DHT22;56075;51.264;7.150;2022-11-15T18:34:07;13.50;99.90
20833;DHT22;56075;51.264;7.150;2022-11-15T18:36:40;13.20;99.90
20833;DHT22;56075;51.264;7.150;2022-11-15T18:39:12;13.20;99.90
20833;DHT22;56075;51.264;7.150;2022-11-15T18:41:47;13.30;99.90
20833;DHT22;56075;51.264;7.150;2022-11-15T18:44:18;13.10;99.90
20833;DHT22;56075;51.264;7.150;2022-11-15T18:46:58;13.40;99.90
20833;DHT22;56075;51.264;7.150;2022-11-15T18:49:32;13.00;99.90
20833;DHT22;56075;51.264;7.150;2022-11-15T18:52:07;12.90;99.90
20833;DHT22;56075;51.264;7.150;2022-11-15T18:54:49;12.80;99.90
20833;DHT22;56075;51.264;7.150;2022-11-15T18:57:21;13.10;99.90
20833;DHT22;56075;51.264;7.150;2022-11-15T18:59:53;12.90;99.90
20833;DHT22;56075;51.264;7.150;2022-11-15T19:02:24;12.70;99.90
20833;DHT22;56075;51.264;7.150;2022-11-15T19:04:55;12.60;99.90
20833;DHT22;56075;51.264;7.150;2022-11-15T19:07:33;12.50;99.90
20833;DHT22;56075;51.264;7.150;2022-11-15T19:10:07;12.60;99.90
20833;DHT22;56075;51.264;7.150;2022-11-15T19:12:41;12.50;99.90
20833;DHT22;56075;51.264;7.150;2022-11-15T19:15:24;12.50;99.90
20833;DHT22;56075;51.264;7.150;2022-11-15T19:18:08;12.60;99.90
20833;DHT22;56075;51.264;7.150;2022-11-15T19:20:42;12.40;99.90
20833;DHT22;56075;51.264;7.150;2022-11-15T19:23:14;12.50;99.90
20833;DHT22;56075;51.264;7.150;2022-11-15T19:25:54;12.40;99.90
20833;DHT22;56075;51.264;7.150;2022-11-15T19:28:32;12.50;99.90
20833;DHT22;56075;51.264;7.150;2022-11-15T19:31:18;12.60;99.90
20833;DHT22;56075;51.264;7.150;2022-11-15T19:33:51;12.10;99.90
20833;DHT22;56075;51.264;7.150;2022-11-15T19:36:27;12.40;99.90
20833;DHT22;56075;51.264;7.150;2022-11-15T19:39:04;12.40;99.90
20833;DHT22;56075;51.264;7.150;2022-11-15T19:41:40;12.50;99.90
20833;DHT22;56075;51.264;7.150;2022-11-15T19:44:12;12.30;99.90
20833;DHT22;56075;51.264;7.150;2022-11-15T19:46:47;12.30;99.90
20833;DHT22;56075;51.264;7.150;2022-11-15T19:49:21;12.40;99.90
20833;DHT22;56075;51.264;7.150;2022-11-15T19:51:55;12.20;99.90